Time;durP1;ratioP1;P1;durP2;ratioP2;P2;SDS_P1;SDS_P2;PMS_P1;PMS_P2;Temp;Humidity;BMP_temperature;BMP_pressure;BME280_temperature;BME280_humidity;BME280_pressure;Samples;Min_cycle;Max_cycle;Signal;HPM_P1;HPM_P2
2024/03/16 00:00:07;;;;;;;;;;;;;;;6.13;100.00;100855.94;5017051;28;20333;-74
2024/03/16 00:02:36;;;;;;;;;;;;;;;6.13;100.00;100859.41;5016626;28;19955;-73
2024/03/16 00:05:01;;;;;;;;;;;;;;;6.13;100.00;100859.41;5020501;28;19917;-74
2024/03/16 00:07:27;;;;;;;;;;;;;;;5.85;100.00;100866.16;4981344;28;19988;-73
2024/03/16 00:09:53;;;;;;;;;;;;;;;5.79;100.00;100870.09;5025094;28;19925;-73
2024/03/16 00:12:18;;;;;;;;;;;;;;;5.82;100.00;100857.47;5015966;28;19944;-73
2024/03/16 00:14:48;;;;;;;;;;;;;;;5.94;100.00;100856.47;5022540;28;19956;-74
2024/03/16 00:17:13;;;;;;;;;;;;;;;6.07;100.00;100855.56;5026568;28;19972;-74
2024/03/16 00:19:39;;;;;;;;;;;;;;;6.17;100.00;100849.31;5018718;28;19925;-74
2024/03/16 00:22:04;;;;;;;;;;;;;;;6.24;100.00;100852.38;5022256;28;20395;-73
2024/03/16 00:24:30;;;;;;;;;;;;;;;6.13;100.00;100850.81;5021855;28;19943;-73
2024/03/16 00:26:57;;;;;;;;;;;;;;;6.06;100.00;100852.13;5019128;28;19925;-74
2024/03/16 00:29:22;;;;;;;;;;;;;;;5.98;100.00;100848.16;5011398;28;19941;-73
2024/03/16 00:31:48;;;;;;;;;;;;;;;5.97;100.00;100849.84;5021803;28;19921;-73
2024/03/16 00:34:14;;;;;;;;;;;;;;;5.99;100.00;100853.44;5020254;28;19926;-73
2024/03/16 00:36:39;;;;;;;;;;;;;;;6.03;100.00;100844.28;5019778;28;19925;-73
2024/03/16 00:39:14;;;;;;;;;;;;;;;6.13;100.00;100844.03;5021320;28;19932;-74
2024/03/16 00:41:40;;;;;;;;;;;;;;;6.22;100.00;100845.34;5013809;28;19925;-73
2024/03/16 00:44:05;;;;;;;;;;;;;;;6.21;100.00;100844.47;5018312;28;19980;-73
2024/03/16 00:46:31;;;;;;;;;;;;;;;6.31;100.00;100839.09;5017667;28;19983;-74
2024/03/16 00:48:57;;;;;;;;;;;;;;;6.45;100.00;100839.06;5012986;28;19925;-73
2024/03/16 00:51:30;;;;;;;;;;;;;;;6.55;100.00;100837.94;5024052;28;20000;-73
2024/03/16 00:53:56;;;;;;;;;;;;;;;6.56;100.00;100837.13;5012130;28;20074;-73
2024/03/16 01:23:47;;;;;;;;;;;;;;;6.79;100.00;100830.75;5007423;28;20063;-74
2024/03/16 02:13:48;;;;;;;;;;;;;;;5.73;100.00;100849.22;5028486;28;19928;-73
2024/03/16 02:28:25;;;;;;;;;;;;;;;5.70;100.00;100846.47;5016669;28;19939;-73
2024/03/16 02:31:09;;;;;;;;;;;;;;;5.59;100.00;100848.34;5023836;28;20012;-73
2024/03/16 04:38:58;;;;;;;;;;;;;;;4.63;100.00;100951.25;4991074;28;20087;-73
2024/03/16 04:41:27;;;;;;;;;;;;;;;4.61;100.00;100958.84;4988596;28;19922;-73
2024/03/16 04:43:53;;;;;;;;;;;;;;;4.53;100.00;100957.41;4987133;28;20597;-73
2024/03/16 04:46:18;;;;;;;;;;;;;;;4.62;100.00;100955.50;4990996;28;19975;-73
2024/03/16 04:54:49;;;;;;;;;;;;;;;4.98;100.00;100957.88;4989448;28;20033;-73
2024/03/16 04:57:15;;;;;;;;;;;;;;;5.12;100.00;100961.34;4990549;28;19925;-73
2024/03/16 04:59:40;;;;;;;;;;;;;;;5.21;100.00;100955.97;4992140;28;20446;-73
2024/03/16 05:02:05;;;;;;;;;;;;;;;5.30;100.00;100966.84;5022496;28;19925;-73
2024/03/16 05:38:02;;;;;;;;;;;;;;;5.24;100.00;100998.00;5024244;28;20474;-73
2024/03/16 12:00:25;;;;;;;;;;;;;;;13.78;100.00;100901.22;5008022;28;20405;-74
2024/03/16 12:02:52;;;;;;;;;;;;;;;13.60;100.00;100897.22;5024950;28;19925;-74
2024/03/16 12:05:19;;;;;;;;;;;;;;;13.74;100.00;100897.66;5020608;28;20387;-74
2024/03/16 12:07:46;;;;;;;;;;;;;;;13.82;100.00;100897.88;5017684;28;19917;-74
2024/03/16 15:10:08;;;;;;;;;;;;;;;14.72;70.77;100740.25;5011499;28;19928;-80
